Malabar, FL (32950)

7:37 PM EDT on August 04, 2015 (GMT -0400)
Brook Hollow | | Change Station
CLOSE
Current Station
Personal Weather Station
Location: Malabar, FL
Elevation: 12 ft
Nearby Weather Stations

Elev 12 ft 28.01 °N, 80.60 °W | Updated 1 hour ago

Mostly Cloudy
Mostly Cloudy
86.0 °F
Feels Like 92 °F
N
2.0
Wind Variable Wind from SSE
Gusts 4.0 mph

Today
High -- | Low -- °F
--% Chance of Precip.
Yesterday
High -- | Low -- °F
Precip. -- in
6:46 AM 8:10 PM
Waning Gibbous, 73% visible
Pressure 30.04 in
Visibility 10.0 miles
Clouds Mostly Cloudy 6000 ft
Heat Index 92 °F
Dew Point 72 °F
Humidity 62%
Rainfall 0.00 in
Snow Depth Not available.
UV 1 out of 12
Pollen 3.90 out of 12
Air Quality Not available.
Flu Activity Not available.
METAR KMLB 042253Z 14008KT 10SM BKN060 30/21 A3004 RMK AO2 SLP170 T03000206

More Conditions Fewer Conditions

Pressure 30.04 in
Visibility 10.0 miles
Clouds Mostly Cloudy 6000 ft
Heat Index 92 °F
Dew Point 72 °F
Humidity 62%
Rainfall 0.00 in
Snow Depth Not available.
UV 1 out of 12
Pollen 3.90 out of 12
Air Quality Not available.
Flu Activity Not available.
METAR KMLB 042253Z 14008KT 10SM BKN060 30/21 A3004 RMK AO2 SLP170 T03000206

More Conditions Fewer Conditions

Nowcast | as of 5:45 PM EDT on August 4, 2015

Through sunset...showers and storms will be somewhat decreased in number and isolated in coverage. Over east central Florida...a few will occur along Interstate 95 and the Florida Turnpike near Indiantown and Port Saint Lucie...as well as a few near Blue Cypress Lake to near Titusville. One or two gusts to 40 mph are still possible with any stronger storms that may develop. Additional details...including graphics are available online at: http://www.Srh.NOAA.Gov/mlb/blog.Php

×

10-Day Weather Forecast

×

Almanac

Astronomy

Aug. 04, 2015 Rise Set
Actual Time
Civil Twilight
Nautical Twilight
Astronomical Twilight
Moon
Length of Visible Light
Length of Day
Tomorrow will be .
, % of the Moon is Illuminated

Today's Extremes

State Highs State Lows

Community

WunderPhotos

Upload Photos

1,844,026 photos uploaded!

WunderBlogs® & News

Nearby

Air Quality

  Air Quality AQ Index Pollutant
Not available.

Snow Depth

Station Depth Elevation

Earthquake Activity

City Distance Mag. Time & Date
Minimum magnitude displayed is 2.5.

Coastal Water Temperatures

Place Temperature

Stations

Nearby Weather Stations

Station Location Temp. Windchill Dew Point Humidity Wind Precip. Elev Updated Type